createdAt,value
2023-05-20T05:49:23.745Z,86.49
2023-05-20T05:50:26.447Z,83.42
2023-05-20T05:51:29.361Z,83.95
2023-05-20T05:52:32.688Z,82.06
2023-05-20T05:54:52.578Z,77.61
2023-05-20T05:55:54.795Z,76.02
2023-05-20T05:56:57.008Z,70.59
2023-05-20T05:58:02.871Z,74.54
2023-05-20T05:59:07.449Z,75.30
2023-05-20T06:00:14.689Z,76.08
2023-05-20T06:01:23.533Z,72.04
2023-05-20T06:02:28.345Z,69.00
2023-05-20T06:04:55.264Z,70.33
2023-05-20T06:05:58.402Z,69.43
2023-05-20T06:07:00.739Z,69.36
2023-05-20T06:08:03.151Z,68.55
2023-05-20T06:09:09.229Z,69.20
2023-05-20T06:10:11.807Z,71.32
2023-05-20T06:11:13.888Z,68.15
2023-05-20T06:12:17.195Z,69.91
2023-05-20T06:13:22.161Z,69.14
2023-05-20T06:14:24.536Z,67.63
2023-05-20T06:15:29.245Z,68.83
2023-05-20T06:16:32.262Z,71.39
2023-05-20T06:17:38.306Z,70.18
2023-05-20T06:18:41.117Z,70.58
2023-05-20T06:19:44.075Z,70.05
2023-05-20T06:20:46.726Z,72.32
2023-05-20T06:21:49.068Z,72.13
2023-05-20T06:22:51.388Z,72.50
2023-05-20T06:24:01.949Z,68.94
2023-05-20T06:25:04.405Z,64.61
2023-05-20T06:26:09.213Z,61.31
2023-05-20T06:27:11.248Z,59.71
2023-05-20T06:28:14.029Z,62.68
2023-05-20T06:29:18.348Z,59.48
2023-05-20T06:30:21.036Z,58.60
2023-05-20T06:31:23.560Z,57.51
2023-05-20T06:32:28.238Z,57.14
2023-05-20T06:33:31.899Z,55.84
2023-05-20T06:34:37.777Z,57.41
2023-05-20T06:35:39.799Z,56.36
2023-05-20T06:36:41.898Z,54.62
2023-05-20T06:37:44.569Z,55.45
2023-05-20T06:38:47.089Z,55.34
2023-05-20T06:39:54.094Z,57.20
2023-05-20T06:40:56.368Z,56.57
2023-05-20T06:41:58.326Z,53.99
2023-05-20T06:43:05.088Z,52.90
2023-05-20T06:44:40.471Z,50.87
2023-05-20T06:46:08.660Z,50.18
2023-05-20T06:47:16.329Z,47.37
2023-05-20T06:48:19.229Z,47.79
2023-05-20T06:49:21.604Z,49.66
2023-05-20T06:50:25.087Z,48.40
2023-05-20T06:51:28.398Z,50.97
2023-05-20T06:52:30.544Z,52.41
2023-05-20T06:53:32.427Z,51.27
2023-05-20T06:54:40.071Z,51.74
2023-05-20T06:55:42.451Z,51.96
2023-05-20T06:56:45.727Z,54.25
2023-05-20T06:57:50.132Z,54.65
2023-05-20T06:58:57.028Z,54.07
2023-05-20T06:59:59.026Z,53.97
2023-05-20T07:01:01.792Z,56.20
2023-05-20T07:02:04.785Z,54.20
2023-05-20T07:03:07.888Z,53.99
2023-05-20T07:04:10.214Z,54.60
2023-05-20T07:05:13.136Z,53.36
2023-05-20T07:06:15.010Z,48.69
2023-05-20T07:07:18.089Z,48.09
2023-05-20T07:08:21.051Z,48.64
2023-05-20T07:09:24.642Z,50.85
2023-05-20T07:10:26.905Z,51.29
2023-05-20T07:11:29.398Z,50.41
2023-05-20T07:12:36.566Z,49.13
2023-05-20T07:13:43.131Z,49.08
2023-05-20T07:14:45.028Z,48.42
2023-05-20T07:15:47.977Z,48.39
2023-05-20T07:16:50.867Z,45.95
2023-05-20T07:17:53.279Z,45.48
2023-05-20T07:18:56.138Z,48.23
2023-05-20T07:19:58.086Z,47.86
2023-05-20T07:21:03.369Z,50.22
2023-05-20T07:22:23.714Z,50.68
2023-05-20T07:23:44.963Z,52.01
2023-05-20T07:24:47.002Z,51.65
2023-05-20T07:25:49.724Z,48.95
2023-05-20T07:26:51.843Z,49.48
2023-05-20T07:27:54.278Z,47.07
2023-05-20T07:28:56.482Z,48.16
2023-05-20T07:29:58.530Z,48.26
2023-05-20T07:31:00.648Z,50.64
2023-05-20T07:32:08.244Z,50.20
2023-05-20T07:33:11.207Z,49.43
2023-05-20T07:34:13.128Z,47.35
2023-05-20T07:35:15.931Z,47.75
2023-05-20T07:36:19.706Z,48.71
2023-05-20T07:37:24.956Z,48.54
2023-05-20T07:38:27.080Z,46.59
2023-05-20T07:39:36.554Z,43.24
2023-05-20T07:40:40.684Z,41.71
2023-05-20T07:41:43.331Z,39.65
2023-05-20T07:42:47.300Z,41.40
2023-05-20T07:44:03.432Z,42.99
2023-05-20T07:45:10.023Z,44.13
2023-05-20T07:46:14.003Z,42.43
2023-05-20T07:47:16.573Z,40.90
2023-05-20T07:49:40.411Z,41.17
2023-05-20T07:50:44.758Z,41.08
2023-05-20T07:51:47.595Z,40.61
2023-05-20T07:52:56.505Z,40.76
2023-05-20T07:54:03.102Z,41.90
2023-05-20T07:55:05.827Z,41.92
2023-05-20T07:56:07.789Z,40.19
2023-05-20T07:57:09.869Z,39.13
2023-05-20T07:58:12.074Z,37.75
2023-05-20T07:59:15.688Z,38.74
2023-05-20T08:00:21.012Z,40.60
2023-05-20T08:01:22.939Z,41.92
2023-05-20T08:02:25.271Z,42.54
2023-05-20T08:03:27.700Z,40.09
2023-05-20T08:04:37.179Z,39.37
2023-05-20T08:05:42.401Z,37.59
2023-05-20T08:06:44.678Z,38.71
2023-05-20T08:07:52.323Z,39.31
2023-05-20T08:08:57.118Z,36.88
2023-05-20T08:10:05.031Z,37.32
2023-05-20T08:11:07.814Z,38.45
2023-05-20T08:12:09.828Z,38.46
2023-05-20T08:13:11.712Z,39.58
2023-05-20T08:14:15.198Z,38.95
2023-05-20T08:15:19.222Z,39.00
2023-05-20T08:16:22.461Z,40.61
2023-05-20T08:17:31.461Z,41.63
2023-05-20T08:18:36.700Z,40.78
2023-05-20T08:19:39.184Z,41.07
2023-05-20T08:20:44.914Z,39.81
2023-05-20T08:21:47.515Z,39.34
2023-05-20T08:22:49.627Z,39.16
2023-05-20T08:23:53.368Z,39.01
2023-05-20T08:24:55.477Z,38.88
2023-05-20T08:25:58.105Z,39.11
2023-05-20T08:27:01.237Z,39.89
2023-05-20T08:28:09.177Z,41.00
2023-05-20T08:29:14.285Z,42.61
2023-05-20T08:30:20.757Z,41.80
2023-05-20T08:31:25.941Z,42.58
2023-05-20T08:32:29.918Z,43.30
2023-05-20T08:33:34.604Z,43.00
2023-05-20T08:34:37.454Z,43.06
2023-05-20T08:35:42.307Z,43.16
2023-05-20T08:36:46.324Z,44.37
2023-05-20T08:37:57.644Z,43.96
2023-05-20T08:39:00.876Z,44.65
2023-05-20T08:40:07.375Z,44.45
2023-05-20T08:41:09.531Z,44.14
2023-05-20T08:42:14.242Z,44.48
2023-05-20T08:43:16.346Z,45.08
2023-05-20T08:44:19.746Z,45.22
2023-05-20T08:45:26.694Z,46.27
2023-05-20T08:46:31.633Z,46.16
2023-05-20T08:47:34.382Z,46.56
2023-05-20T08:48:42.265Z,46.46
2023-05-20T08:49:49.849Z,46.89
2023-05-20T08:50:53.008Z,47.90
2023-05-20T08:51:56.215Z,46.97
2023-05-20T08:52:59.072Z,47.70
2023-05-20T08:54:03.763Z,46.98
2023-05-20T08:55:10.028Z,46.17
2023-05-20T08:56:13.435Z,46.25
2023-05-20T08:57:17.913Z,46.21
2023-05-20T08:58:21.134Z,45.78
2023-05-20T08:59:23.833Z,46.15
2023-05-20T09:00:29.069Z,45.89
2023-05-20T09:01:31.610Z,46.23
2023-05-20T09:02:33.526Z,46.46
2023-05-20T09:03:35.723Z,48.37
2023-05-20T09:04:38.545Z,47.53
2023-05-20T09:05:52.484Z,46.59
2023-05-20T09:06:56.352Z,47.21
2023-05-20T09:08:08.676Z,47.54
2023-05-20T09:09:12.746Z,47.19
2023-05-20T09:10:15.016Z,47.47
2023-05-20T09:11:17.334Z,48.79
2023-05-20T09:12:21.493Z,48.33
2023-05-20T09:15:32.069Z,49.99
2023-05-20T09:16:35.087Z,52.24
2023-05-20T09:19:08.612Z,53.74
2023-05-20T09:21:52.655Z,55.04
2023-05-20T09:24:25.551Z,54.52
2023-05-20T09:25:33.253Z,53.38
2023-05-20T09:26:36.288Z,51.89
2023-05-20T09:27:46.218Z,50.15
2023-05-20T09:28:48.845Z,49.66
2023-05-20T09:29:52.488Z,50.28
2023-05-20T09:31:00.054Z,50.13
2023-05-20T09:32:05.285Z,50.94
2023-05-20T09:43:55.350Z,52.66
2023-05-20T09:46:21.740Z,50.84
2023-05-20T09:47:25.665Z,51.33
2023-05-20T09:48:58.953Z,49.71
2023-05-20T09:50:04.047Z,50.36
2023-05-20T09:51:10.266Z,52.93
2023-05-20T09:52:21.532Z,52.41
2023-05-20T09:53:30.371Z,52.14
2023-05-20T09:54:36.981Z,50.90
2023-05-20T09:55:39.493Z,50.53
2023-05-20T09:56:42.477Z,50.75
2023-05-20T09:57:45.313Z,51.51
2023-05-20T09:58:48.929Z,53.08
2023-05-20T09:59:53.532Z,53.43
2023-05-20T10:00:55.520Z,52.99
2023-05-20T10:01:57.641Z,53.01
2023-05-20T10:03:00.786Z,53.56
2023-05-20T10:04:06.954Z,54.44
2023-05-20T10:05:16.788Z,56.65
2023-05-20T10:06:40.594Z,57.18
2023-05-20T10:07:58.726Z,58.08
2023-05-20T10:09:19.229Z,58.41
2023-05-20T10:10:28.946Z,57.14
2023-05-20T10:12:02.207Z,57.93
2023-05-20T10:13:29.075Z,58.53
2023-05-20T10:14:46.997Z,58.40
2023-05-20T10:16:07.379Z,58.80
2023-05-20T10:17:15.471Z,59.64
2023-05-20T10:18:35.941Z,59.85
2023-05-20T10:19:38.610Z,60.98
2023-05-20T10:20:49.653Z,60.30
2023-05-20T10:22:04.111Z,62.31
2023-05-20T10:23:06.571Z,61.94
2023-05-20T10:24:12.020Z,61.31
2023-05-20T10:25:27.017Z,61.36
2023-05-20T10:26:36.706Z,60.69
2023-05-20T10:27:46.700Z,59.21
2023-05-20T10:28:49.946Z,57.97
2023-05-20T10:30:03.518Z,57.91
2023-05-20T10:31:21.692Z,57.51
2023-05-20T10:32:58.027Z,57.10
2023-05-20T10:34:00.293Z,56.24
2023-05-20T10:35:10.242Z,55.91
2023-05-20T10:36:31.584Z,55.75
2023-05-20T10:37:44.292Z,56.07
2023-05-20T10:38:57.064Z,55.92
2023-05-20T10:40:25.741Z,55.41
2023-05-20T10:41:29.546Z,55.46
2023-05-20T10:42:31.593Z,55.97
2023-05-20T10:43:33.903Z,55.35
2023-05-20T10:44:48.666Z,55.56
2023-05-20T10:45:56.311Z,56.19
2023-05-20T10:47:24.814Z,55.63
2023-05-20T10:48:35.725Z,54.61
2023-05-20T10:49:46.114Z,54.94
2023-05-20T10:50:48.900Z,54.21
2023-05-20T10:51:51.687Z,54.27
2023-05-20T10:52:53.774Z,54.72
2023-05-20T10:53:56.632Z,54.95
2023-05-20T10:55:01.159Z,54.63
2023-05-20T10:56:04.183Z,55.67
2023-05-20T10:57:10.013Z,55.63
2023-05-20T10:58:12.424Z,56.37
2023-05-20T10:59:16.062Z,55.89
2023-05-20T11:00:24.229Z,56.21
2023-05-20T11:01:45.457Z,56.48
2023-05-20T11:09:13.886Z,54.82
2023-05-20T11:34:25.005Z,56.16
2023-05-20T11:35:33.839Z,54.08
2023-05-20T11:36:44.071Z,53.51
2023-05-20T11:37:55.484Z,53.14
2023-05-20T11:39:24.759Z,53.50
2023-05-20T11:46:52.246Z,50.84
2023-05-20T11:48:08.819Z,48.55
2023-05-20T11:49:24.384Z,48.40
2023-05-20T11:54:35.475Z,49.07
2023-05-20T11:56:00.438Z,50.26
2023-05-20T11:57:49.467Z,49.56
2023-05-20T11:59:16.847Z,48.76
2023-05-20T12:00:31.358Z,48.70
2023-05-20T12:01:44.781Z,48.10
2023-05-20T12:02:54.036Z,47.36
2023-05-20T12:15:08.587Z,57.19
2023-05-20T12:59:44.197Z,50.02
2023-05-20T13:00:46.972Z,49.49
2023-05-20T13:01:49.534Z,48.14
2023-05-20T13:09:35.726Z,47.69
2023-05-20T13:10:39.095Z,47.55
2023-05-20T13:11:41.072Z,47.64
2023-05-20T13:12:46.102Z,46.51
2023-05-20T13:13:48.234Z,46.60
2023-05-20T13:14:52.597Z,46.75
2023-05-20T13:15:55.213Z,46.46
2023-05-20T13:16:57.200Z,46.67
2023-05-20T13:18:01.575Z,46.62
2023-05-20T13:19:03.918Z,45.42
2023-05-20T13:20:07.517Z,43.84
2023-05-20T13:21:10.029Z,44.48
2023-05-20T13:22:12.880Z,44.60
2023-05-20T13:23:14.880Z,44.86
2023-05-20T13:24:17.606Z,44.86
2023-05-20T13:25:20.086Z,44.15
2023-05-20T13:26:24.794Z,44.95
2023-05-20T13:27:26.954Z,44.67
2023-05-20T13:28:29.008Z,45.90
2023-05-20T13:29:31.203Z,46.94
2023-05-20T13:30:34.637Z,47.20
2023-05-20T13:31:37.765Z,47.35
2023-05-20T13:32:40.022Z,48.68
2023-05-20T13:33:46.818Z,47.87
2023-05-20T13:35:26.685Z,47.89
2023-05-20T13:36:28.740Z,48.48
2023-05-20T13:37:30.916Z,49.19
2023-05-20T13:38:35.163Z,49.39
2023-05-20T13:39:38.173Z,50.17
2023-05-20T13:40:42.491Z,50.61
2023-05-20T13:41:44.883Z,50.37
2023-05-20T13:42:49.404Z,51.14
2023-05-20T13:43:51.729Z,50.54
2023-05-20T13:44:54.618Z,50.96
2023-05-20T13:45:59.153Z,50.69
2023-05-20T13:47:01.355Z,50.41
2023-05-20T13:48:03.980Z,50.71
2023-05-20T13:49:06.644Z,50.41
2023-05-20T13:50:09.817Z,50.09
2023-05-20T13:51:12.051Z,51.12
2023-05-20T13:55:38.404Z,53.56
2023-05-20T13:56:47.512Z,51.94
2023-05-20T13:57:49.598Z,51.44
2023-05-20T13:58:51.801Z,51.56
2023-05-20T13:59:56.780Z,51.05
2023-05-20T14:01:02.195Z,50.12
2023-05-20T14:02:04.988Z,50.40
2023-05-20T14:03:09.392Z,51.29
2023-05-20T14:04:14.512Z,52.76
2023-05-20T14:05:16.903Z,53.76
2023-05-20T14:06:24.240Z,53.82
2023-05-20T14:10:00.634Z,55.46
2023-05-20T14:12:18.381Z,55.20
2023-05-20T14:13:32.285Z,55.56
2023-05-20T14:40:05.696Z,54.29
2023-05-20T14:47:37.156Z,54.35
2023-05-20T14:48:59.019Z,54.03
2023-05-20T14:50:02.201Z,54.67
2023-05-20T14:51:04.762Z,55.50
2023-05-20T14:52:08.173Z,54.47
2023-05-20T14:53:10.300Z,56.38
2023-05-20T14:54:12.383Z,54.72
2023-05-20T14:55:14.858Z,55.50
2023-05-20T14:56:22.990Z,55.63
2023-05-20T14:57:55.071Z,56.39
2023-05-20T14:58:59.402Z,55.75
2023-05-20T15:00:03.161Z,56.97
2023-05-20T15:01:07.915Z,57.09
2023-05-20T15:02:10.446Z,57.18
2023-05-20T15:03:14.562Z,57.24
2023-05-20T15:04:19.689Z,56.20
2023-05-20T15:09:07.830Z,57.52
2023-05-20T15:23:52.595Z,57.34
2023-05-20T15:25:15.601Z,56.74
2023-05-20T15:38:33.827Z,55.11
2023-05-20T19:33:19.577Z,100.00
2023-05-20T22:56:34.562Z,100.00
